sensor_id;sensor_type;location;lat;lon;timestamp;temperature;humidity
33645;DHT22;19986;48.190;16.366;2022-08-01T00:01:41;24.40;99.70
33645;DHT22;19986;48.190;16.366;2022-08-01T00:04:07;24.40;99.80
33645;DHT22;19986;48.190;16.366;2022-08-01T00:06:33;24.40;99.90
33645;DHT22;19986;48.190;16.366;2022-08-01T00:08:58;24.40;99.90
33645;DHT22;19986;48.190;16.366;2022-08-01T00:11:24;24.40;99.90
33645;DHT22;19986;48.190;16.366;2022-08-01T00:13:50;24.40;99.90
33645;DHT22;19986;48.190;16.366;2022-08-01T00:16:16;24.40;99.90
33645;DHT22;19986;48.190;16.366;2022-08-01T00:18:43;24.40;99.90
33645;DHT22;19986;48.190;16.366;2022-08-01T00:21:08;24.30;99.90
33645;DHT22;19986;48.190;16.366;2022-08-01T00:23:34;24.40;99.90
33645;DHT22;19986;48.190;16.366;2022-08-01T00:26:00;24.40;99.90
33645;DHT22;19986;48.190;16.366;2022-08-01T00:28:27;24.30;99.90
33645;DHT22;19986;48.190;16.366;2022-08-01T00:30:52;24.40;99.90
33645;DHT22;19986;48.190;16.366;2022-08-01T00:33:18;24.40;99.90
33645;DHT22;19986;48.190;16.366;2022-08-01T00:35:50;24.40;99.90
33645;DHT22;19986;48.190;16.366;2022-08-01T00:38:16;24.40;99.90
33645;DHT22;19986;48.190;16.366;2022-08-01T00:40:42;24.30;99.90
33645;DHT22;19986;48.190;16.366;2022-08-01T00:43:10;24.40;99.90
33645;DHT22;19986;48.190;16.366;2022-08-01T00:45:35;24.40;99.90
33645;DHT22;19986;48.190;16.366;2022-08-01T00:48:02;24.40;99.90
33645;DHT22;19986;48.190;16.366;2022-08-01T00:50:27;24.40;99.90
33645;DHT22;19986;48.190;16.366;2022-08-01T00:52:54;24.40;99.90
33645;DHT22;19986;48.190;16.366;2022-08-01T00:55:20;24.40;99.90
33645;DHT22;19986;48.190;16.366;2022-08-01T00:57:47;24.50;99.90
33645;DHT22;19986;48.190;16.366;2022-08-01T01:00:14;24.50;99.90
33645;DHT22;19986;48.190;16.366;2022-08-01T01:02:40;24.50;99.90
33645;DHT22;19986;48.190;16.366;2022-08-01T01:05:06;24.50;99.90
33645;DHT22;19986;48.190;16.366;2022-08-01T01:15:59;24.50;99.90
33645;DHT22;19986;48.190;16.366;2022-08-01T01:18:32;24.50;99.90
33645;DHT22;19986;48.190;16.366;2022-08-01T01:27:18;24.50;99.90
33645;DHT22;19986;48.190;16.366;2022-08-01T01:29:53;24.40;99.90
33645;DHT22;19986;48.190;16.366;2022-08-01T01:32:32;24.40;99.90
33645;DHT22;19986;48.190;16.366;2022-08-01T01:35:05;24.40;99.90
33645;DHT22;19986;48.190;16.366;2022-08-01T01:37:33;24.30;99.90
33645;DHT22;19986;48.190;16.366;2022-08-01T01:40:02;24.30;99.90
33645;DHT22;19986;48.190;16.366;2022-08-01T01:42:33;24.30;99.90
33645;DHT22;19986;48.190;16.366;2022-08-01T01:45:03;24.30;99.90
33645;DHT22;19986;48.190;16.366;2022-08-01T01:47:31;24.30;99.90
33645;DHT22;19986;48.190;16.366;2022-08-01T01:50:00;24.30;99.90
33645;DHT22;19986;48.190;16.366;2022-08-01T01:52:28;24.30;99.90
33645;DHT22;19986;48.190;16.366;2022-08-01T01:54:56;24.30;99.90
33645;DHT22;19986;48.190;16.366;2022-08-01T01:57:23;24.40;99.90
33645;DHT22;19986;48.190;16.366;2022-08-01T01:59:51;24.30;99.90
33645;DHT22;19986;48.190;16.366;2022-08-01T02:02:19;24.40;99.90
33645;DHT22;19986;48.190;16.366;2022-08-01T02:04:46;24.40;99.90
33645;DHT22;19986;48.190;16.366;2022-08-01T02:07:16;24.40;99.90
33645;DHT22;19986;48.190;16.366;2022-08-01T02:09:44;24.40;99.90
33645;DHT22;19986;48.190;16.366;2022-08-01T02:12:12;24.50;99.90
33645;DHT22;19986;48.190;16.366;2022-08-01T02:14:40;24.50;99.90
33645;DHT22;19986;48.190;16.366;2022-08-01T02:17:11;24.50;99.90
33645;DHT22;19986;48.190;16.366;2022-08-01T02:19:39;24.50;99.90
33645;DHT22;19986;48.190;16.366;2022-08-01T02:22:25;24.50;99.90
33645;DHT22;19986;48.190;16.366;2022-08-01T02:25:09;24.50;99.90
33645;DHT22;19986;48.190;16.366;2022-08-01T02:27:48;24.60;99.90
33645;DHT22;19986;48.190;16.366;2022-08-01T02:30:17;24.50;99.90
33645;DHT22;19986;48.190;16.366;2022-08-01T02:32:47;24.60;99.90
33645;DHT22;19986;48.190;16.366;2022-08-01T02:35:24;24.60;99.90
33645;DHT22;19986;48.190;16.366;2022-08-01T02:37:53;24.60;99.90
33645;DHT22;19986;48.190;16.366;2022-08-01T02:40:20;24.70;99.90
33645;DHT22;19986;48.190;16.366;2022-08-01T02:42:49;24.70;99.90
33645;DHT22;19986;48.190;16.366;2022-08-01T02:45:22;24.70;99.90
33645;DHT22;19986;48.190;16.366;2022-08-01T02:47:51;24.70;99.90
33645;DHT22;19986;48.190;16.366;2022-08-01T02:50:20;24.80;99.90
33645;DHT22;19986;48.190;16.366;2022-08-01T02:52:50;24.70;99.90
33645;DHT22;19986;48.190;16.366;2022-08-01T02:55:18;24.80;99.90
33645;DHT22;19986;48.190;16.366;2022-08-01T02:57:46;24.90;99.90
33645;DHT22;19986;48.190;16.366;2022-08-01T03:00:16;24.90;99.90
33645;DHT22;19986;48.190;16.366;2022-08-01T03:02:43;24.80;99.90
33645;DHT22;19986;48.190;16.366;2022-08-01T03:05:12;24.80;99.90
33645;DHT22;19986;48.190;16.366;2022-08-01T03:07:40;24.80;99.90
33645;DHT22;19986;48.190;16.366;2022-08-01T03:10:08;24.80;99.90
33645;DHT22;19986;48.190;16.366;2022-08-01T03:12:36;24.80;99.90
33645;DHT22;19986;48.190;16.366;2022-08-01T03:15:04;24.80;99.90
33645;DHT22;19986;48.190;16.366;2022-08-01T03:17:31;24.80;99.90
33645;DHT22;19986;48.190;16.366;2022-08-01T03:19:59;24.80;99.90
33645;DHT22;19986;48.190;16.366;2022-08-01T03:22:27;24.90;99.90
33645;DHT22;19986;48.190;16.366;2022-08-01T03:24:56;24.80;99.90
33645;DHT22;19986;48.190;16.366;2022-08-01T03:27:24;24.80;99.90
33645;DHT22;19986;48.190;16.366;2022-08-01T03:29:51;24.80;99.90
33645;DHT22;19986;48.190;16.366;2022-08-01T03:32:21;24.80;99.90
33645;DHT22;19986;48.190;16.366;2022-08-01T03:34:48;24.90;99.90
33645;DHT22;19986;48.190;16.366;2022-08-01T03:37:25;24.90;99.90
33645;DHT22;19986;48.190;16.366;2022-08-01T03:40:00;24.90;99.90
33645;DHT22;19986;48.190;16.366;2022-08-01T03:43:01;24.90;99.90
33645;DHT22;19986;48.190;16.366;2022-08-01T03:45:34;24.90;99.90
33645;DHT22;19986;48.190;16.366;2022-08-01T03:48:05;24.90;99.90
33645;DHT22;19986;48.190;16.366;2022-08-01T03:50:33;24.90;99.90
33645;DHT22;19986;48.190;16.366;2022-08-01T03:53:02;25.00;99.90
33645;DHT22;19986;48.190;16.366;2022-08-01T03:55:28;25.00;99.90
33645;DHT22;19986;48.190;16.366;2022-08-01T03:57:55;25.00;99.90
33645;DHT22;19986;48.190;16.366;2022-08-01T04:00:23;25.10;99.90
33645;DHT22;19986;48.190;16.366;2022-08-01T04:02:50;25.00;99.90
33645;DHT22;19986;48.190;16.366;2022-08-01T04:05:17;25.10;99.90
33645;DHT22;19986;48.190;16.366;2022-08-01T04:07:48;25.10;99.90
33645;DHT22;19986;48.190;16.366;2022-08-01T04:10:24;25.10;99.90
33645;DHT22;19986;48.190;16.366;2022-08-01T04:12:51;25.10;99.90
33645;DHT22;19986;48.190;16.366;2022-08-01T04:15:17;25.10;99.90
33645;DHT22;19986;48.190;16.366;2022-08-01T04:17:46;25.20;99.90
33645;DHT22;19986;48.190;16.366;2022-08-01T04:20:12;25.20;99.90
33645;DHT22;19986;48.190;16.366;2022-08-01T04:22:38;25.30;99.90
33645;DHT22;19986;48.190;16.366;2022-08-01T04:25:09;25.40;99.90
33645;DHT22;19986;48.190;16.366;2022-08-01T04:27:38;25.40;99.90
33645;DHT22;19986;48.190;16.366;2022-08-01T04:30:06;25.50;99.90
33645;DHT22;19986;48.190;16.366;2022-08-01T04:32:35;25.60;99.80
33645;DHT22;19986;48.190;16.366;2022-08-01T04:35:05;25.70;99.80
33645;DHT22;19986;48.190;16.366;2022-08-01T04:37:33;25.60;99.90
33645;DHT22;19986;48.190;16.366;2022-08-01T04:40:04;25.50;99.90
33645;DHT22;19986;48.190;16.366;2022-08-01T04:42:32;25.50;99.90
33645;DHT22;19986;48.190;16.366;2022-08-01T04:44:59;25.50;99.90
33645;DHT22;19986;48.190;16.366;2022-08-01T04:47:29;25.40;99.90
33645;DHT22;19986;48.190;16.366;2022-08-01T04:49:56;25.40;99.90
33645;DHT22;19986;48.190;16.366;2022-08-01T04:52:22;25.40;99.90
33645;DHT22;19986;48.190;16.366;2022-08-01T04:54:48;25.40;99.90
33645;DHT22;19986;48.190;16.366;2022-08-01T04:57:14;25.40;99.90
33645;DHT22;19986;48.190;16.366;2022-08-01T04:59:43;25.50;99.90
33645;DHT22;19986;48.190;16.366;2022-08-01T05:02:18;25.50;99.90
33645;DHT22;19986;48.190;16.366;2022-08-01T05:04:45;25.60;99.90
33645;DHT22;19986;48.190;16.366;2022-08-01T05:07:12;25.60;99.90
33645;DHT22;19986;48.190;16.366;2022-08-01T05:09:40;25.60;99.90
33645;DHT22;19986;48.190;16.366;2022-08-01T05:12:11;25.70;99.90
33645;DHT22;19986;48.190;16.366;2022-08-01T05:14:37;25.70;99.90
33645;DHT22;19986;48.190;16.366;2022-08-01T05:17:06;25.70;99.90
33645;DHT22;19986;48.190;16.366;2022-08-01T05:19:33;25.70;99.90
33645;DHT22;19986;48.190;16.366;2022-08-01T05:22:00;25.70;99.90
33645;DHT22;19986;48.190;16.366;2022-08-01T05:24:27;25.70;99.90
33645;DHT22;19986;48.190;16.366;2022-08-01T05:26:57;25.70;99.90
33645;DHT22;19986;48.190;16.366;2022-08-01T05:29:24;25.70;99.90
33645;DHT22;19986;48.190;16.366;2022-08-01T05:31:50;25.80;99.90
33645;DHT22;19986;48.190;16.366;2022-08-01T05:34:16;25.80;99.90
33645;DHT22;19986;48.190;16.366;2022-08-01T05:36:42;25.90;99.90
33645;DHT22;19986;48.190;16.366;2022-08-01T05:39:08;26.00;99.90
33645;DHT22;19986;48.190;16.366;2022-08-01T05:41:36;26.00;99.90
33645;DHT22;19986;48.190;16.366;2022-08-01T05:44:03;26.00;99.90
33645;DHT22;19986;48.190;16.366;2022-08-01T05:46:29;26.00;99.90
33645;DHT22;19986;48.190;16.366;2022-08-01T05:48:57;26.00;99.90
33645;DHT22;19986;48.190;16.366;2022-08-01T05:51:23;26.10;99.90
33645;DHT22;19986;48.190;16.366;2022-08-01T05:53:49;26.10;99.80
33645;DHT22;19986;48.190;16.366;2022-08-01T05:56:14;26.10;99.80
33645;DHT22;19986;48.190;16.366;2022-08-01T05:58:40;26.10;99.70
33645;DHT22;19986;48.190;16.366;2022-08-01T06:01:06;26.20;99.70
33645;DHT22;19986;48.190;16.366;2022-08-01T06:03:32;26.30;99.70
33645;DHT22;19986;48.190;16.366;2022-08-01T06:06:00;26.50;99.60
33645;DHT22;19986;48.190;16.366;2022-08-01T06:08:26;26.50;99.40
33645;DHT22;19986;48.190;16.366;2022-08-01T06:10:52;26.60;99.20
33645;DHT22;19986;48.190;16.366;2022-08-01T06:13:18;26.60;99.30
33645;DHT22;19986;48.190;16.366;2022-08-01T06:15:47;26.60;99.20
33645;DHT22;19986;48.190;16.366;2022-08-01T06:18:14;26.70;99.10
33645;DHT22;19986;48.190;16.366;2022-08-01T06:20:40;26.80;98.90
33645;DHT22;19986;48.190;16.366;2022-08-01T06:23:06;26.80;99.20
33645;DHT22;19986;48.190;16.366;2022-08-01T06:25:33;26.80;98.80
33645;DHT22;19986;48.190;16.366;2022-08-01T06:28:05;26.90;98.70
33645;DHT22;19986;48.190;16.366;2022-08-01T06:30:30;27.10;98.30
33645;DHT22;19986;48.190;16.366;2022-08-01T06:32:56;27.10;98.60
33645;DHT22;19986;48.190;16.366;2022-08-01T06:35:24;27.20;97.80
33645;DHT22;19986;48.190;16.366;2022-08-01T06:37:50;27.40;97.60
33645;DHT22;19986;48.190;16.366;2022-08-01T06:40:16;27.50;97.00
33645;DHT22;19986;48.190;16.366;2022-08-01T06:42:43;27.60;96.40
33645;DHT22;19986;48.190;16.366;2022-08-01T06:45:11;27.50;96.20
33645;DHT22;19986;48.190;16.366;2022-08-01T06:47:38;27.60;96.30
33645;DHT22;19986;48.190;16.366;2022-08-01T06:50:05;27.70;96.10
33645;DHT22;19986;48.190;16.366;2022-08-01T06:52:32;27.90;95.80
33645;DHT22;19986;48.190;16.366;2022-08-01T06:54:58;28.10;95.80
33645;DHT22;19986;48.190;16.366;2022-08-01T06:57:23;28.30;95.30
33645;DHT22;19986;48.190;16.366;2022-08-01T06:59:49;28.40;94.90
33645;DHT22;19986;48.190;16.366;2022-08-01T07:02:15;28.50;94.90
33645;DHT22;19986;48.190;16.366;2022-08-01T07:04:41;28.60;94.80
33645;DHT22;19986;48.190;16.366;2022-08-01T07:07:07;28.80;94.70
33645;DHT22;19986;48.190;16.366;2022-08-01T07:09:34;28.90;94.70
33645;DHT22;19986;48.190;16.366;2022-08-01T07:12:00;29.10;94.10
33645;DHT22;19986;48.190;16.366;2022-08-01T07:14:26;29.20;93.90
33645;DHT22;19986;48.190;16.366;2022-08-01T07:16:52;29.30;93.90
33645;DHT22;19986;48.190;16.366;2022-08-01T07:19:18;29.50;93.60
33645;DHT22;19986;48.190;16.366;2022-08-01T07:21:44;29.60;93.20
33645;DHT22;19986;48.190;16.366;2022-08-01T07:24:12;29.80;92.90
33645;DHT22;19986;48.190;16.366;2022-08-01T07:26:39;29.90;92.70
33645;DHT22;19986;48.190;16.366;2022-08-01T07:29:05;30.00;92.60
33645;DHT22;19986;48.190;16.366;2022-08-01T07:31:31;30.00;92.50
33645;DHT22;19986;48.190;16.366;2022-08-01T07:33:57;29.90;92.20
33645;DHT22;19986;48.190;16.366;2022-08-01T07:36:23;29.90;92.20
33645;DHT22;19986;48.190;16.366;2022-08-01T07:38:48;29.70;92.20
33645;DHT22;19986;48.190;16.366;2022-08-01T07:41:15;29.70;92.20
33645;DHT22;19986;48.190;16.366;2022-08-01T07:43:41;29.70;92.20
33645;DHT22;19986;48.190;16.366;2022-08-01T07:46:07;29.60;91.90
33645;DHT22;19986;48.190;16.366;2022-08-01T07:48:33;29.40;91.90
33645;DHT22;19986;48.190;16.366;2022-08-01T07:50:59;29.20;92.30
33645;DHT22;19986;48.190;16.366;2022-08-01T07:53:25;29.10;92.60
33645;DHT22;19986;48.190;16.366;2022-08-01T07:55:51;28.90;92.60
33645;DHT22;19986;48.190;16.366;2022-08-01T07:58:17;28.80;92.90
33645;DHT22;19986;48.190;16.366;2022-08-01T08:00:43;28.70;93.30
33645;DHT22;19986;48.190;16.366;2022-08-01T08:03:08;28.60;93.40
33645;DHT22;19986;48.190;16.366;2022-08-01T08:05:35;28.50;93.50
33645;DHT22;19986;48.190;16.366;2022-08-01T08:08:04;28.50;93.70
33645;DHT22;19986;48.190;16.366;2022-08-01T08:10:30;28.40;94.00
33645;DHT22;19986;48.190;16.366;2022-08-01T08:12:56;28.40;94.20
33645;DHT22;19986;48.190;16.366;2022-08-01T08:15:22;28.50;94.40
33645;DHT22;19986;48.190;16.366;2022-08-01T08:17:48;28.50;94.50
33645;DHT22;19986;48.190;16.366;2022-08-01T08:20:16;28.40;94.40
33645;DHT22;19986;48.190;16.366;2022-08-01T08:22:42;28.30;94.50
33645;DHT22;19986;48.190;16.366;2022-08-01T08:25:08;28.40;94.60
33645;DHT22;19986;48.190;16.366;2022-08-01T08:27:35;28.50;94.50
33645;DHT22;19986;48.190;16.366;2022-08-01T08:30:03;28.70;94.40
33645;DHT22;19986;48.190;16.366;2022-08-01T08:32:31;28.80;94.30
33645;DHT22;19986;48.190;16.366;2022-08-01T08:34:57;28.90;94.20
33645;DHT22;19986;48.190;16.366;2022-08-01T08:37:23;29.10;94.00
33645;DHT22;19986;48.190;16.366;2022-08-01T08:39:48;29.40;93.70
33645;DHT22;19986;48.190;16.366;2022-08-01T08:42:14;29.70;93.10
33645;DHT22;19986;48.190;16.366;2022-08-01T08:44:42;30.10;92.70
33645;DHT22;19986;48.190;16.366;2022-08-01T08:47:11;30.40;92.20
33645;DHT22;19986;48.190;16.366;2022-08-01T08:49:38;30.80;91.80
33645;DHT22;19986;48.190;16.366;2022-08-01T08:52:08;31.10;91.70
33645;DHT22;19986;48.190;16.366;2022-08-01T08:54:37;31.40;91.50
33645;DHT22;19986;48.190;16.366;2022-08-01T08:57:04;31.60;90.90
33645;DHT22;19986;48.190;16.366;2022-08-01T08:59:31;31.70;90.90
33645;DHT22;19986;48.190;16.366;2022-08-01T09:01:58;31.80;90.40
33645;DHT22;19986;48.190;16.366;2022-08-01T09:04:25;31.50;90.30
33645;DHT22;19986;48.190;16.366;2022-08-01T09:06:52;31.20;90.70
33645;DHT22;19986;48.190;16.366;2022-08-01T09:09:17;31.10;90.80
33645;DHT22;19986;48.190;16.366;2022-08-01T09:11:43;31.20;91.00
33645;DHT22;19986;48.190;16.366;2022-08-01T09:14:14;31.20;90.70
33645;DHT22;19986;48.190;16.366;2022-08-01T09:17:05;31.20;90.90
33645;DHT22;19986;48.190;16.366;2022-08-01T09:19:43;31.20;90.90
33645;DHT22;19986;48.190;16.366;2022-08-01T09:22:14;31.10;90.90
33645;DHT22;19986;48.190;16.366;2022-08-01T09:25:05;31.20;90.80
33645;DHT22;19986;48.190;16.366;2022-08-01T09:27:32;31.30;90.50
33645;DHT22;19986;48.190;16.366;2022-08-01T09:30:12;31.60;90.60
33645;DHT22;19986;48.190;16.366;2022-08-01T09:33:01;32.70;89.10
33645;DHT22;19986;48.190;16.366;2022-08-01T09:35:29;34.30;86.50
33645;DHT22;19986;48.190;16.366;2022-08-01T09:38:17;36.00;84.00
33645;DHT22;19986;48.190;16.366;2022-08-01T09:40:54;36.70;79.40
33645;DHT22;19986;48.190;16.366;2022-08-01T09:43:26;36.30;80.00
33645;DHT22;19986;48.190;16.366;2022-08-01T09:45:52;36.10;79.70
33645;DHT22;19986;48.190;16.366;2022-08-01T09:48:20;35.90;79.60
33645;DHT22;19986;48.190;16.366;2022-08-01T09:50:48;36.50;79.30
33645;DHT22;19986;48.190;16.366;2022-08-01T09:53:15;37.30;77.90
33645;DHT22;19986;48.190;16.366;2022-08-01T09:55:42;38.20;76.40
33645;DHT22;19986;48.190;16.366;2022-08-01T09:58:09;38.50;75.50
33645;DHT22;19986;48.190;16.366;2022-08-01T10:00:38;38.90;74.20
33645;DHT22;19986;48.190;16.366;2022-08-01T10:03:22;38.30;73.30
33645;DHT22;19986;48.190;16.366;2022-08-01T10:05:48;38.30;74.00
33645;DHT22;19986;48.190;16.366;2022-08-01T10:08:14;38.50;73.20
33645;DHT22;19986;48.190;16.366;2022-08-01T10:10:40;38.10;73.30
33645;DHT22;19986;48.190;16.366;2022-08-01T10:13:07;36.80;74.50
33645;DHT22;19986;48.190;16.366;2022-08-01T10:15:37;35.80;76.20
33645;DHT22;19986;48.190;16.366;2022-08-01T10:18:06;36.20;76.90
33645;DHT22;19986;48.190;16.366;2022-08-01T10:20:33;37.40;73.20
33645;DHT22;19986;48.190;16.366;2022-08-01T10:23:03;37.10;72.20
33645;DHT22;19986;48.190;16.366;2022-08-01T10:25:35;37.20;73.20
33645;DHT22;19986;48.190;16.366;2022-08-01T10:28:10;37.50;73.20
33645;DHT22;19986;48.190;16.366;2022-08-01T10:30:38;37.40;73.40
33645;DHT22;19986;48.190;16.366;2022-08-01T10:33:06;37.40;73.80
33645;DHT22;19986;48.190;16.366;2022-08-01T10:35:33;36.90;74.00
33645;DHT22;19986;48.190;16.366;2022-08-01T10:37:59;37.00;74.60
33645;DHT22;19986;48.190;16.366;2022-08-01T10:40:25;37.60;74.30
33645;DHT22;19986;48.190;16.366;2022-08-01T10:42:53;38.00;73.00
33645;DHT22;19986;48.190;16.366;2022-08-01T10:45:19;38.80;72.50
33645;DHT22;19986;48.190;16.366;2022-08-01T10:50:35;40.20;68.50
33645;DHT22;19986;48.190;16.366;2022-08-01T10:53:18;40.30;67.60
33645;DHT22;19986;48.190;16.366;2022-08-01T10:58:11;40.80;66.80
33645;DHT22;19986;48.190;16.366;2022-08-01T11:00:37;40.40;66.10
33645;DHT22;19986;48.190;16.366;2022-08-01T11:03:03;39.30;66.90
33645;DHT22;19986;48.190;16.366;2022-08-01T11:05:34;38.00;68.80
33645;DHT22;19986;48.190;16.366;2022-08-01T11:08:11;37.00;71.20
33645;DHT22;19986;48.190;16.366;2022-08-01T11:10:46;37.50;71.60
33645;DHT22;19986;48.190;16.366;2022-08-01T11:13:13;37.90;70.70
33645;DHT22;19986;48.190;16.366;2022-08-01T11:15:39;37.50;68.60
33645;DHT22;19986;48.190;16.366;2022-08-01T11:20:58;36.10;69.30
33645;DHT22;19986;48.190;16.366;2022-08-01T11:23:26;36.00;68.60
33645;DHT22;19986;48.190;16.366;2022-08-01T11:28:23;36.70;69.00
33645;DHT22;19986;48.190;16.366;2022-08-01T11:38:41;35.40;71.00
33645;DHT22;19986;48.190;16.366;2022-08-01T11:54:46;33.40;76.00
33645;DHT22;19986;48.190;16.366;2022-08-01T11:57:21;33.20;76.30
33645;DHT22;19986;48.190;16.366;2022-08-01T11:59:49;33.10;76.90
33645;DHT22;19986;48.190;16.366;2022-08-01T12:02:18;33.00;76.90
33645;DHT22;19986;48.190;16.366;2022-08-01T12:04:52;32.90;76.60
33645;DHT22;19986;48.190;16.366;2022-08-01T12:07:19;32.70;77.00
33645;DHT22;19986;48.190;16.366;2022-08-01T12:09:46;32.80;77.40
33645;DHT22;19986;48.190;16.366;2022-08-01T12:12:15;32.60;78.10
33645;DHT22;19986;48.190;16.366;2022-08-01T12:14:44;32.50;78.40
33645;DHT22;19986;48.190;16.366;2022-08-01T12:17:10;32.30;78.70
33645;DHT22;19986;48.190;16.366;2022-08-01T12:19:36;32.00;79.60
33645;DHT22;19986;48.190;16.366;2022-08-01T12:22:12;31.80;80.30
33645;DHT22;19986;48.190;16.366;2022-08-01T12:24:39;31.50;81.40
33645;DHT22;19986;48.190;16.366;2022-08-01T12:27:07;31.20;82.10
33645;DHT22;19986;48.190;16.366;2022-08-01T12:29:34;31.00;83.00
33645;DHT22;19986;48.190;16.366;2022-08-01T12:32:03;30.80;83.30
33645;DHT22;19986;48.190;16.366;2022-08-01T12:34:35;30.60;84.10
33645;DHT22;19986;48.190;16.366;2022-08-01T12:37:01;30.60;84.60
33645;DHT22;19986;48.190;16.366;2022-08-01T12:39:34;30.40;84.20
33645;DHT22;19986;48.190;16.366;2022-08-01T12:42:00;30.30;83.10
33645;DHT22;19986;48.190;16.366;2022-08-01T12:44:28;30.30;83.00
33645;DHT22;19986;48.190;16.366;2022-08-01T12:46:56;30.30;82.00
33645;DHT22;19986;48.190;16.366;2022-08-01T12:49:22;30.30;81.40
33645;DHT22;19986;48.190;16.366;2022-08-01T12:51:49;30.50;81.40
33645;DHT22;19986;48.190;16.366;2022-08-01T12:54:16;30.60;81.80
33645;DHT22;19986;48.190;16.366;2022-08-01T12:56:42;30.60;82.20
33645;DHT22;19986;48.190;16.366;2022-08-01T12:59:25;30.60;83.00
33645;DHT22;19986;48.190;16.366;2022-08-01T13:01:53;30.50;84.00
33645;DHT22;19986;48.190;16.366;2022-08-01T13:04:20;30.50;85.40
33645;DHT22;19986;48.190;16.366;2022-08-01T13:06:47;30.40;85.80
33645;DHT22;19986;48.190;16.366;2022-08-01T13:09:13;30.50;86.10
33645;DHT22;19986;48.190;16.366;2022-08-01T13:11:40;30.50;86.40
33645;DHT22;19986;48.190;16.366;2022-08-01T13:14:06;30.60;86.50
33645;DHT22;19986;48.190;16.366;2022-08-01T13:16:32;30.50;87.00
33645;DHT22;19986;48.190;16.366;2022-08-01T13:19:11;30.60;87.60
33645;DHT22;19986;48.190;16.366;2022-08-01T13:21:37;30.50;87.90
33645;DHT22;19986;48.190;16.366;2022-08-01T13:24:13;30.50;88.60
33645;DHT22;19986;48.190;16.366;2022-08-01T13:26:52;30.40;89.30
33645;DHT22;19986;48.190;16.366;2022-08-01T13:29:20;30.40;89.80
33645;DHT22;19986;48.190;16.366;2022-08-01T13:31:49;30.50;90.00
33645;DHT22;19986;48.190;16.366;2022-08-01T13:34:15;30.40;89.80
33645;DHT22;19986;48.190;16.366;2022-08-01T13:36:41;30.30;89.90
33645;DHT22;19986;48.190;16.366;2022-08-01T13:39:07;30.40;90.00
33645;DHT22;19986;48.190;16.366;2022-08-01T13:41:52;30.50;89.90
33645;DHT22;19986;48.190;16.366;2022-08-01T13:44:18;30.70;89.50
33645;DHT22;19986;48.190;16.366;2022-08-01T13:46:45;30.80;88.90
33645;DHT22;19986;48.190;16.366;2022-08-01T13:49:13;30.80;88.10
33645;DHT22;19986;48.190;16.366;2022-08-01T13:51:39;30.90;86.90
33645;DHT22;19986;48.190;16.366;2022-08-01T13:54:05;31.00;85.00
33645;DHT22;19986;48.190;16.366;2022-08-01T13:56:32;31.00;84.70
33645;DHT22;19986;48.190;16.366;2022-08-01T13:58:58;31.00;84.60
33645;DHT22;19986;48.190;16.366;2022-08-01T14:01:25;31.10;84.30
33645;DHT22;19986;48.190;16.366;2022-08-01T14:03:57;31.30;84.00
33645;DHT22;19986;48.190;16.366;2022-08-01T14:06:23;31.30;83.20
33645;DHT22;19986;48.190;16.366;2022-08-01T14:08:49;31.40;84.40
33645;DHT22;19986;48.190;16.366;2022-08-01T14:11:16;31.50;83.60
33645;DHT22;19986;48.190;16.366;2022-08-01T14:13:43;31.70;83.10
33645;DHT22;19986;48.190;16.366;2022-08-01T14:16:10;31.90;83.00
33645;DHT22;19986;48.190;16.366;2022-08-01T14:18:36;32.00;82.00
33645;DHT22;19986;48.190;16.366;2022-08-01T14:21:03;31.80;81.30
33645;DHT22;19986;48.190;16.366;2022-08-01T14:23:30;31.50;81.60
33645;DHT22;19986;48.190;16.366;2022-08-01T14:25:56;31.30;82.20
33645;DHT22;19986;48.190;16.366;2022-08-01T14:28:22;31.40;82.90
33645;DHT22;19986;48.190;16.366;2022-08-01T14:30:50;31.50;82.30
33645;DHT22;19986;48.190;16.366;2022-08-01T14:33:16;31.70;82.00
33645;DHT22;19986;48.190;16.366;2022-08-01T14:35:42;31.50;81.70
33645;DHT22;19986;48.190;16.366;2022-08-01T14:38:08;31.50;81.90
33645;DHT22;19986;48.190;16.366;2022-08-01T14:40:34;31.50;82.00
33645;DHT22;19986;48.190;16.366;2022-08-01T14:43:00;31.40;81.80
33645;DHT22;19986;48.190;16.366;2022-08-01T14:45:27;31.50;81.90
33645;DHT22;19986;48.190;16.366;2022-08-01T14:47:53;31.70;81.40
33645;DHT22;19986;48.190;16.366;2022-08-01T14:50:19;31.80;81.60
33645;DHT22;19986;48.190;16.366;2022-08-01T14:52:45;32.00;81.50
33645;DHT22;19986;48.190;16.366;2022-08-01T14:55:12;32.10;80.80
33645;DHT22;19986;48.190;16.366;2022-08-01T14:57:39;32.20;79.90
33645;DHT22;19986;48.190;16.366;2022-08-01T15:00:07;32.20;80.10
33645;DHT22;19986;48.190;16.366;2022-08-01T15:02:35;32.20;80.10
33645;DHT22;19986;48.190;16.366;2022-08-01T15:05:01;32.20;80.30
33645;DHT22;19986;48.190;16.366;2022-08-01T15:07:27;32.40;80.00
33645;DHT22;19986;48.190;16.366;2022-08-01T15:09:53;32.60;79.70
33645;DHT22;19986;48.190;16.366;2022-08-01T15:12:19;32.80;79.80
33645;DHT22;19986;48.190;16.366;2022-08-01T15:14:45;32.90;78.90
33645;DHT22;19986;48.190;16.366;2022-08-01T15:19:49;32.90;79.00
33645;DHT22;19986;48.190;16.366;2022-08-01T15:22:16;32.80;79.40
33645;DHT22;19986;48.190;16.366;2022-08-01T15:24:44;32.60;79.80
33645;DHT22;19986;48.190;16.366;2022-08-01T15:27:10;32.30;80.00
33645;DHT22;19986;48.190;16.366;2022-08-01T15:29:36;32.20;80.80
33645;DHT22;19986;48.190;16.366;2022-08-01T15:32:04;32.30;80.80
33645;DHT22;19986;48.190;16.366;2022-08-01T15:34:32;32.40;80.60
33645;DHT22;19986;48.190;16.366;2022-08-01T15:36:58;32.40;80.90
33645;DHT22;19986;48.190;16.366;2022-08-01T15:39:24;32.20;81.20
33645;DHT22;19986;48.190;16.366;2022-08-01T15:41:50;32.10;81.60
33645;DHT22;19986;48.190;16.366;2022-08-01T15:44:16;32.10;81.70
33645;DHT22;19986;48.190;16.366;2022-08-01T15:46:48;32.20;82.20
33645;DHT22;19986;48.190;16.366;2022-08-01T15:49:15;32.30;81.20
33645;DHT22;19986;48.190;16.366;2022-08-01T15:51:41;32.40;81.60
33645;DHT22;19986;48.190;16.366;2022-08-01T15:54:08;32.30;81.90
33645;DHT22;19986;48.190;16.366;2022-08-01T15:56:36;32.30;82.10
33645;DHT22;19986;48.190;16.366;2022-08-01T15:59:02;32.10;82.60
33645;DHT22;19986;48.190;16.366;2022-08-01T16:01:29;32.00;83.00
33645;DHT22;19986;48.190;16.366;2022-08-01T16:03:56;32.00;83.20
33645;DHT22;19986;48.190;16.366;2022-08-01T16:06:23;31.90;83.10
33645;DHT22;19986;48.190;16.366;2022-08-01T16:08:49;31.80;83.40
33645;DHT22;19986;48.190;16.366;2022-08-01T16:11:16;31.70;83.70